KSVE/SVE METAR and TAF weather

Enter ICAO airport designator
Station Type Date Time Source
KSVE METAR 2020/07/10 21:35 UTC NOAA

KSVE 102135Z AUTO 22006KT 10SM CLR 32/M08 A3016 RMK AO2


Station Type Date Time Source
KSVE Decoded METAR 2020/07/10 21:35 UTC NOAA

Susanville Municipal, CA, United States (KSVE) 40-23N 120-34W
Jul 10, 2020 - 05:35 PM EDT / 2020.07.10 2135 UTC
Wind: from the SW (220 degrees) at 7 MPH (6 KT):0
Visibility: 10 mile(s):0
Sky conditions: clear
Temperature: 89 F (32 C)
Dew Point: 17 F (-8 C)
Relative Humidity: 7%
Pressure (altimeter): 30.16 in. Hg (1021 hPa)
ob: KSVE 102135Z AUTO 22006KT 10SM CLR 32/M08 A3016 RMK AO2
cycle: 21

Station Type Date Time Source
KSVE TAF UTC NOAA

Error!

Example: see airport list